sensor_id;sensor_type;location;lat;lon;timestamp;P1;durP1;ratioP1;P2;durP2;ratioP2
5801;SDS011;2927;49.366;8.530;2022-07-30T00:02:14;9.87;;;5.73;;
5801;SDS011;2927;49.366;8.530;2022-07-30T00:04:41;7.23;;;5.30;;
5801;SDS011;2927;49.366;8.530;2022-07-30T00:07:07;6.60;;;4.57;;
5801;SDS011;2927;49.366;8.530;2022-07-30T00:09:33;5.63;;;4.67;;
5801;SDS011;2927;49.366;8.530;2022-07-30T00:11:58;8.20;;;4.13;;
5801;SDS011;2927;49.366;8.530;2022-07-30T00:14:24;12.33;;;4.43;;
5801;SDS011;2927;49.366;8.530;2022-07-30T00:16:50;6.17;;;4.43;;
5801;SDS011;2927;49.366;8.530;2022-07-30T00:19:16;9.70;;;5.10;;
5801;SDS011;2927;49.366;8.530;2022-07-30T00:21:41;13.13;;;5.33;;
5801;SDS011;2927;49.366;8.530;2022-07-30T00:24:07;4.37;;;3.83;;
5801;SDS011;2927;49.366;8.530;2022-07-30T00:26:33;9.77;;;4.33;;
5801;SDS011;2927;49.366;8.530;2022-07-30T00:28:58;8.73;;;4.87;;
5801;SDS011;2927;49.366;8.530;2022-07-30T00:31:24;8.80;;;4.37;;
5801;SDS011;2927;49.366;8.530;2022-07-30T00:33:49;8.67;;;4.47;;
5801;SDS011;2927;49.366;8.530;2022-07-30T00:36:15;11.70;;;3.90;;
5801;SDS011;2927;49.366;8.530;2022-07-30T00:38:40;4.53;;;4.13;;
5801;SDS011;2927;49.366;8.530;2022-07-30T00:41:06;9.47;;;4.23;;
5801;SDS011;2927;49.366;8.530;2022-07-30T00:43:31;10.23;;;4.20;;
5801;SDS011;2927;49.366;8.530;2022-07-30T00:45:57;8.97;;;3.53;;
5801;SDS011;2927;49.366;8.530;2022-07-30T00:48:22;4.97;;;3.90;;
5801;SDS011;2927;49.366;8.530;2022-07-30T00:50:48;10.53;;;3.50;;
5801;SDS011;2927;49.366;8.530;2022-07-30T00:53:13;12.27;;;3.87;;
5801;SDS011;2927;49.366;8.530;2022-07-30T00:55:39;5.10;;;3.50;;
5801;SDS011;2927;49.366;8.530;2022-07-30T00:58:04;7.90;;;3.70;;
5801;SDS011;2927;49.366;8.530;2022-07-30T01:00:30;7.57;;;3.63;;
5801;SDS011;2927;49.366;8.530;2022-07-30T01:02:56;4.23;;;3.70;;
5801;SDS011;2927;49.366;8.530;2022-07-30T01:05:21;6.20;;;4.27;;
5801;SDS011;2927;49.366;8.530;2022-07-30T01:07:47;8.80;;;4.63;;
5801;SDS011;2927;49.366;8.530;2022-07-30T01:10:13;8.17;;;3.63;;
5801;SDS011;2927;49.366;8.530;2022-07-30T01:12:39;6.43;;;3.10;;
5801;SDS011;2927;49.366;8.530;2022-07-30T01:15:06;9.33;;;3.77;;
5801;SDS011;2927;49.366;8.530;2022-07-30T01:17:33;3.50;;;3.13;;
5801;SDS011;2927;49.366;8.530;2022-07-30T01:20:04;6.30;;;3.00;;
5801;SDS011;2927;49.366;8.530;2022-07-30T01:22:47;7.97;;;4.03;;
5801;SDS011;2927;49.366;8.530;2022-07-30T01:28:06;5.10;;;3.07;;
5801;SDS011;2927;49.366;8.530;2022-07-30T01:30:35;5.50;;;3.10;;
5801;SDS011;2927;49.366;8.530;2022-07-30T01:33:04;3.53;;;3.07;;
5801;SDS011;2927;49.366;8.530;2022-07-30T01:35:31;7.03;;;3.20;;
5801;SDS011;2927;49.366;8.530;2022-07-30T01:37:58;4.63;;;3.30;;
5801;SDS011;2927;49.366;8.530;2022-07-30T01:40:26;6.40;;;2.83;;
5801;SDS011;2927;49.366;8.530;2022-07-30T01:42:52;3.33;;;2.90;;
5801;SDS011;2927;49.366;8.530;2022-07-30T01:45:22;6.73;;;3.00;;
5801;SDS011;2927;49.366;8.530;2022-07-30T01:47:49;5.07;;;2.67;;
5801;SDS011;2927;49.366;8.530;2022-07-30T01:50:17;5.03;;;2.90;;
5801;SDS011;2927;49.366;8.530;2022-07-30T01:52:45;5.20;;;2.63;;
5801;SDS011;2927;49.366;8.530;2022-07-30T01:55:13;7.87;;;3.10;;
5801;SDS011;2927;49.366;8.530;2022-07-30T01:57:41;4.70;;;3.30;;
5801;SDS011;2927;49.366;8.530;2022-07-30T02:00:09;3.80;;;2.63;;
5801;SDS011;2927;49.366;8.530;2022-07-30T02:02:36;4.67;;;3.40;;
5801;SDS011;2927;49.366;8.530;2022-07-30T02:05:03;4.53;;;3.00;;
5801;SDS011;2927;49.366;8.530;2022-07-30T02:07:37;3.17;;;2.67;;
5801;SDS011;2927;49.366;8.530;2022-07-30T02:10:18;7.80;;;3.23;;
5801;SDS011;2927;49.366;8.530;2022-07-30T02:12:48;10.57;;;3.30;;
5801;SDS011;2927;49.366;8.530;2022-07-30T02:17:57;5.50;;;3.60;;
5801;SDS011;2927;49.366;8.530;2022-07-30T02:20:45;3.63;;;2.60;;
5801;SDS011;2927;49.366;8.530;2022-07-30T02:23:18;7.00;;;2.50;;
5801;SDS011;2927;49.366;8.530;2022-07-30T02:25:46;7.73;;;3.27;;
5801;SDS011;2927;49.366;8.530;2022-07-30T02:28:14;4.50;;;2.60;;
5801;SDS011;2927;49.366;8.530;2022-07-30T02:30:49;6.10;;;3.00;;
5801;SDS011;2927;49.366;8.530;2022-07-30T02:33:18;6.30;;;3.20;;
5801;SDS011;2927;49.366;8.530;2022-07-30T02:35:47;4.20;;;2.73;;
5801;SDS011;2927;49.366;8.530;2022-07-30T02:38:15;4.20;;;2.80;;
5801;SDS011;2927;49.366;8.530;2022-07-30T02:40:42;5.77;;;3.33;;
5801;SDS011;2927;49.366;8.530;2022-07-30T02:43:10;2.50;;;2.30;;
5801;SDS011;2927;49.366;8.530;2022-07-30T02:45:39;3.90;;;3.40;;
5801;SDS011;2927;49.366;8.530;2022-07-30T02:48:06;3.73;;;2.80;;
5801;SDS011;2927;49.366;8.530;2022-07-30T02:50:34;3.50;;;2.87;;
5801;SDS011;2927;49.366;8.530;2022-07-30T02:53:00;5.53;;;3.00;;
5801;SDS011;2927;49.366;8.530;2022-07-30T02:55:29;9.30;;;3.60;;
5801;SDS011;2927;49.366;8.530;2022-07-30T02:57:56;4.60;;;2.63;;
5801;SDS011;2927;49.366;8.530;2022-07-30T03:00:23;7.53;;;3.40;;
5801;SDS011;2927;49.366;8.530;2022-07-30T03:02:52;4.27;;;2.70;;
5801;SDS011;2927;49.366;8.530;2022-07-30T03:05:19;3.83;;;2.53;;
5801;SDS011;2927;49.366;8.530;2022-07-30T03:07:45;4.67;;;2.63;;
5801;SDS011;2927;49.366;8.530;2022-07-30T03:10:11;4.27;;;3.17;;
5801;SDS011;2927;49.366;8.530;2022-07-30T03:12:38;4.73;;;3.13;;
5801;SDS011;2927;49.366;8.530;2022-07-30T03:15:05;4.00;;;3.00;;
5801;SDS011;2927;49.366;8.530;2022-07-30T03:17:34;7.30;;;2.57;;
5801;SDS011;2927;49.366;8.530;2022-07-30T03:20:03;6.13;;;2.70;;
5801;SDS011;2927;49.366;8.530;2022-07-30T03:22:33;2.70;;;2.50;;
5801;SDS011;2927;49.366;8.530;2022-07-30T03:25:02;3.40;;;2.80;;
5801;SDS011;2927;49.366;8.530;2022-07-30T03:27:29;9.77;;;3.63;;
5801;SDS011;2927;49.366;8.530;2022-07-30T03:29:55;3.40;;;2.93;;
5801;SDS011;2927;49.366;8.530;2022-07-30T03:32:23;7.20;;;3.60;;
5801;SDS011;2927;49.366;8.530;2022-07-30T03:34:49;5.47;;;2.73;;
5801;SDS011;2927;49.366;8.530;2022-07-30T03:37:15;12.80;;;4.03;;
5801;SDS011;2927;49.366;8.530;2022-07-30T03:39:41;6.30;;;2.87;;
5801;SDS011;2927;49.366;8.530;2022-07-30T03:42:08;4.00;;;3.20;;
5801;SDS011;2927;49.366;8.530;2022-07-30T03:44:34;5.63;;;3.33;;
5801;SDS011;2927;49.366;8.530;2022-07-30T03:47:01;9.90;;;3.50;;
5801;SDS011;2927;49.366;8.530;2022-07-30T03:49:28;4.83;;;3.53;;
5801;SDS011;2927;49.366;8.530;2022-07-30T03:51:54;7.00;;;3.20;;
5801;SDS011;2927;49.366;8.530;2022-07-30T03:54:20;4.50;;;3.40;;
5801;SDS011;2927;49.366;8.530;2022-07-30T03:56:46;5.20;;;3.50;;
5801;SDS011;2927;49.366;8.530;2022-07-30T03:59:12;5.53;;;3.90;;
5801;SDS011;2927;49.366;8.530;2022-07-30T04:01:38;9.60;;;3.77;;
5801;SDS011;2927;49.366;8.530;2022-07-30T04:04:07;6.50;;;3.33;;
5801;SDS011;2927;49.366;8.530;2022-07-30T04:06:34;6.87;;;3.67;;
5801;SDS011;2927;49.366;8.530;2022-07-30T04:09:04;9.33;;;4.07;;
5801;SDS011;2927;49.366;8.530;2022-07-30T04:11:34;10.30;;;4.57;;
5801;SDS011;2927;49.366;8.530;2022-07-30T04:14:00;8.10;;;3.87;;
5801;SDS011;2927;49.366;8.530;2022-07-30T04:19:20;8.20;;;4.33;;
5801;SDS011;2927;49.366;8.530;2022-07-30T04:21:48;6.77;;;4.47;;
5801;SDS011;2927;49.366;8.530;2022-07-30T04:24:15;7.93;;;5.40;;
5801;SDS011;2927;49.366;8.530;2022-07-30T04:26:42;6.60;;;5.00;;
5801;SDS011;2927;49.366;8.530;2022-07-30T04:29:08;9.47;;;5.40;;
5801;SDS011;2927;49.366;8.530;2022-07-30T04:31:35;4.80;;;4.33;;
5801;SDS011;2927;49.366;8.530;2022-07-30T04:34:02;7.23;;;6.03;;
5801;SDS011;2927;49.366;8.530;2022-07-30T04:36:29;11.63;;;5.10;;
5801;SDS011;2927;49.366;8.530;2022-07-30T04:38:56;8.70;;;5.17;;
5801;SDS011;2927;49.366;8.530;2022-07-30T04:41:22;7.57;;;4.50;;
5801;SDS011;2927;49.366;8.530;2022-07-30T04:43:48;5.30;;;4.40;;
5801;SDS011;2927;49.366;8.530;2022-07-30T04:46:14;7.83;;;4.57;;
5801;SDS011;2927;49.366;8.530;2022-07-30T04:48:39;12.47;;;5.47;;
5801;SDS011;2927;49.366;8.530;2022-07-30T04:51:07;7.63;;;4.63;;
5801;SDS011;2927;49.366;8.530;2022-07-30T04:53:36;7.33;;;4.40;;
5801;SDS011;2927;49.366;8.530;2022-07-30T04:56:03;7.27;;;4.83;;
5801;SDS011;2927;49.366;8.530;2022-07-30T04:58:31;6.30;;;5.43;;
5801;SDS011;2927;49.366;8.530;2022-07-30T05:00:58;8.40;;;5.67;;
5801;SDS011;2927;49.366;8.530;2022-07-30T05:03:25;17.50;;;6.10;;
5801;SDS011;2927;49.366;8.530;2022-07-30T05:05:52;14.90;;;5.97;;
5801;SDS011;2927;49.366;8.530;2022-07-30T05:08:20;8.93;;;5.27;;
5801;SDS011;2927;49.366;8.530;2022-07-30T05:10:47;8.93;;;5.77;;
5801;SDS011;2927;49.366;8.530;2022-07-30T05:13:13;16.70;;;7.40;;
5801;SDS011;2927;49.366;8.530;2022-07-30T05:15:39;13.80;;;7.57;;
5801;SDS011;2927;49.366;8.530;2022-07-30T05:18:05;9.67;;;6.23;;
5801;SDS011;2927;49.366;8.530;2022-07-30T05:20:31;10.30;;;6.80;;
5801;SDS011;2927;49.366;8.530;2022-07-30T05:22:56;19.90;;;7.47;;
5801;SDS011;2927;49.366;8.530;2022-07-30T05:25:22;20.47;;;8.00;;
5801;SDS011;2927;49.366;8.530;2022-07-30T05:27:47;14.27;;;7.60;;
5801;SDS011;2927;49.366;8.530;2022-07-30T05:30:12;20.63;;;9.47;;
5801;SDS011;2927;49.366;8.530;2022-07-30T05:32:38;13.20;;;8.00;;
5801;SDS011;2927;49.366;8.530;2022-07-30T05:35:04;17.80;;;7.60;;
5801;SDS011;2927;49.366;8.530;2022-07-30T05:37:29;11.13;;;6.97;;
5801;SDS011;2927;49.366;8.530;2022-07-30T05:39:55;11.17;;;5.70;;
5801;SDS011;2927;49.366;8.530;2022-07-30T05:42:20;9.57;;;5.97;;
5801;SDS011;2927;49.366;8.530;2022-07-30T05:44:46;7.97;;;5.17;;
5801;SDS011;2927;49.366;8.530;2022-07-30T05:47:11;12.80;;;5.63;;
5801;SDS011;2927;49.366;8.530;2022-07-30T05:49:37;7.33;;;4.80;;
5801;SDS011;2927;49.366;8.530;2022-07-30T05:52:03;9.37;;;5.20;;
5801;SDS011;2927;49.366;8.530;2022-07-30T05:54:28;11.93;;;5.50;;
5801;SDS011;2927;49.366;8.530;2022-07-30T05:56:54;6.60;;;4.93;;
5801;SDS011;2927;49.366;8.530;2022-07-30T05:59:19;5.57;;;4.53;;
5801;SDS011;2927;49.366;8.530;2022-07-30T06:01:45;5.00;;;4.50;;
5801;SDS011;2927;49.366;8.530;2022-07-30T06:04:11;7.10;;;4.27;;
5801;SDS011;2927;49.366;8.530;2022-07-30T06:06:37;4.47;;;4.00;;
5801;SDS011;2927;49.366;8.530;2022-07-30T06:09:02;5.10;;;3.53;;
5801;SDS011;2927;49.366;8.530;2022-07-30T06:11:28;4.53;;;4.13;;
5801;SDS011;2927;49.366;8.530;2022-07-30T06:13:53;6.20;;;3.90;;
5801;SDS011;2927;49.366;8.530;2022-07-30T06:16:19;5.50;;;4.27;;
5801;SDS011;2927;49.366;8.530;2022-07-30T06:18:44;6.00;;;3.53;;
5801;SDS011;2927;49.366;8.530;2022-07-30T06:21:10;5.50;;;4.40;;
5801;SDS011;2927;49.366;8.530;2022-07-30T06:23:35;4.90;;;3.80;;
5801;SDS011;2927;49.366;8.530;2022-07-30T06:26:01;4.90;;;3.83;;
5801;SDS011;2927;49.366;8.530;2022-07-30T06:28:26;5.57;;;4.17;;
5801;SDS011;2927;49.366;8.530;2022-07-30T06:30:52;9.20;;;4.13;;
5801;SDS011;2927;49.366;8.530;2022-07-30T06:33:17;8.43;;;3.77;;
5801;SDS011;2927;49.366;8.530;2022-07-30T06:35:43;4.77;;;2.90;;
5801;SDS011;2927;49.366;8.530;2022-07-30T06:38:09;3.43;;;3.10;;
5801;SDS011;2927;49.366;8.530;2022-07-30T06:40:35;5.27;;;3.90;;
5801;SDS011;2927;49.366;8.530;2022-07-30T06:43:00;8.40;;;3.53;;
5801;SDS011;2927;49.366;8.530;2022-07-30T06:45:26;6.90;;;3.87;;
5801;SDS011;2927;49.366;8.530;2022-07-30T06:47:55;4.25;;;3.58;;
5801;SDS011;2927;49.366;8.530;2022-07-30T06:50:22;4.03;;;3.63;;
5801;SDS011;2927;49.366;8.530;2022-07-30T06:52:47;4.37;;;3.57;;
5801;SDS011;2927;49.366;8.530;2022-07-30T06:55:13;4.63;;;4.05;;
5801;SDS011;2927;49.366;8.530;2022-07-30T06:57:38;3.85;;;3.42;;
5801;SDS011;2927;49.366;8.530;2022-07-30T07:00:04;4.53;;;3.78;;
5801;SDS011;2927;49.366;8.530;2022-07-30T07:02:31;14.15;;;4.22;;
5801;SDS011;2927;49.366;8.530;2022-07-30T07:04:57;6.53;;;4.68;;
5801;SDS011;2927;49.366;8.530;2022-07-30T07:07:23;5.85;;;4.35;;
5801;SDS011;2927;49.366;8.530;2022-07-30T07:09:48;11.55;;;4.05;;
5801;SDS011;2927;49.366;8.530;2022-07-30T07:12:14;4.75;;;3.60;;
5801;SDS011;2927;49.366;8.530;2022-07-30T07:14:39;6.30;;;4.07;;
5801;SDS011;2927;49.366;8.530;2022-07-30T07:17:05;8.43;;;3.90;;
5801;SDS011;2927;49.366;8.530;2022-07-30T07:19:30;9.15;;;4.97;;
5801;SDS011;2927;49.366;8.530;2022-07-30T07:21:56;5.47;;;4.20;;
5801;SDS011;2927;49.366;8.530;2022-07-30T07:24:22;5.93;;;4.20;;
5801;SDS011;2927;49.366;8.530;2022-07-30T07:26:47;8.00;;;4.50;;
5801;SDS011;2927;49.366;8.530;2022-07-30T07:29:13;4.93;;;3.77;;
5801;SDS011;2927;49.366;8.530;2022-07-30T07:31:38;7.32;;;4.63;;
5801;SDS011;2927;49.366;8.530;2022-07-30T07:34:04;7.40;;;4.55;;
5801;SDS011;2927;49.366;8.530;2022-07-30T07:36:30;5.85;;;4.22;;
5801;SDS011;2927;49.366;8.530;2022-07-30T07:38:56;16.30;;;5.40;;
5801;SDS011;2927;49.366;8.530;2022-07-30T07:41:21;9.57;;;5.57;;
5801;SDS011;2927;49.366;8.530;2022-07-30T07:43:47;5.93;;;4.32;;
5801;SDS011;2927;49.366;8.530;2022-07-30T07:46:13;5.85;;;4.63;;
5801;SDS011;2927;49.366;8.530;2022-07-30T07:48:41;9.23;;;5.00;;
5801;SDS011;2927;49.366;8.530;2022-07-30T07:51:07;7.22;;;4.13;;
5801;SDS011;2927;49.366;8.530;2022-07-30T07:53:32;7.50;;;4.40;;
5801;SDS011;2927;49.366;8.530;2022-07-30T07:55:58;8.77;;;4.25;;
5801;SDS011;2927;49.366;8.530;2022-07-30T07:58:24;5.25;;;4.75;;
5801;SDS011;2927;49.366;8.530;2022-07-30T08:00:49;5.15;;;4.72;;
5801;SDS011;2927;49.366;8.530;2022-07-30T08:03:15;5.03;;;3.63;;
5801;SDS011;2927;49.366;8.530;2022-07-30T08:05:41;5.45;;;4.07;;
5801;SDS011;2927;49.366;8.530;2022-07-30T08:08:06;17.63;;;5.80;;
5801;SDS011;2927;49.366;8.530;2022-07-30T08:10:32;7.47;;;5.43;;
5801;SDS011;2927;49.366;8.530;2022-07-30T08:12:57;7.10;;;4.57;;
5801;SDS011;2927;49.366;8.530;2022-07-30T08:15:23;7.43;;;5.22;;
5801;SDS011;2927;49.366;8.530;2022-07-30T08:17:49;9.13;;;4.35;;
5801;SDS011;2927;49.366;8.530;2022-07-30T08:20:14;8.30;;;5.07;;
5801;SDS011;2927;49.366;8.530;2022-07-30T08:22:41;4.82;;;4.43;;
5801;SDS011;2927;49.366;8.530;2022-07-30T08:25:07;5.65;;;5.15;;
5801;SDS011;2927;49.366;8.530;2022-07-30T08:27:33;6.80;;;5.53;;
5801;SDS011;2927;49.366;8.530;2022-07-30T08:30:02;7.28;;;5.13;;
5801;SDS011;2927;49.366;8.530;2022-07-30T08:32:32;6.97;;;4.53;;
5801;SDS011;2927;49.366;8.530;2022-07-30T08:34:58;6.72;;;4.93;;
5801;SDS011;2927;49.366;8.530;2022-07-30T08:37:24;6.90;;;4.10;;
5801;SDS011;2927;49.366;8.530;2022-07-30T08:39:49;6.38;;;3.75;;
5801;SDS011;2927;49.366;8.530;2022-07-30T08:42:15;4.10;;;3.35;;
5801;SDS011;2927;49.366;8.530;2022-07-30T08:44:41;4.47;;;3.10;;
5801;SDS011;2927;49.366;8.530;2022-07-30T08:47:09;9.40;;;4.13;;
5801;SDS011;2927;49.366;8.530;2022-07-30T08:49:39;9.10;;;3.53;;
5801;SDS011;2927;49.366;8.530;2022-07-30T08:52:05;5.75;;;4.03;;
5801;SDS011;2927;49.366;8.530;2022-07-30T08:54:32;6.30;;;4.25;;
5801;SDS011;2927;49.366;8.530;2022-07-30T08:56:58;7.90;;;5.00;;
5801;SDS011;2927;49.366;8.530;2022-07-30T08:59:24;4.50;;;2.90;;
5801;SDS011;2927;49.366;8.530;2022-07-30T09:01:50;3.28;;;3.08;;
5801;SDS011;2927;49.366;8.530;2022-07-30T09:04:16;4.80;;;3.40;;
5801;SDS011;2927;49.366;8.530;2022-07-30T09:06:42;3.13;;;2.90;;
5801;SDS011;2927;49.366;8.530;2022-07-30T09:09:08;2.85;;;2.47;;
5801;SDS011;2927;49.366;8.530;2022-07-30T09:11:34;3.08;;;2.78;;
5801;SDS011;2927;49.366;8.530;2022-07-30T09:14:10;4.45;;;2.80;;
5801;SDS011;2927;49.366;8.530;2022-07-30T09:16:37;4.65;;;2.78;;
5801;SDS011;2927;49.366;8.530;2022-07-30T09:19:10;4.88;;;4.40;;
5801;SDS011;2927;49.366;8.530;2022-07-30T09:21:40;4.30;;;3.15;;
5801;SDS011;2927;49.366;8.530;2022-07-30T09:24:07;2.58;;;2.42;;
5801;SDS011;2927;49.366;8.530;2022-07-30T09:26:54;5.95;;;2.85;;
5801;SDS011;2927;49.366;8.530;2022-07-30T09:29:28;2.92;;;2.72;;
5801;SDS011;2927;49.366;8.530;2022-07-30T09:31:56;4.10;;;2.63;;
5801;SDS011;2927;49.366;8.530;2022-07-30T09:34:29;4.18;;;2.53;;
5801;SDS011;2927;49.366;8.530;2022-07-30T09:36:57;2.78;;;2.38;;
5801;SDS011;2927;49.366;8.530;2022-07-30T09:39:28;4.45;;;2.60;;
5801;SDS011;2927;49.366;8.530;2022-07-30T09:42:01;3.10;;;2.88;;
5801;SDS011;2927;49.366;8.530;2022-07-30T09:44:29;2.20;;;2.08;;
5801;SDS011;2927;49.366;8.530;2022-07-30T09:46:55;2.60;;;2.40;;
5801;SDS011;2927;49.366;8.530;2022-07-30T09:49:26;4.38;;;2.08;;
5801;SDS011;2927;49.366;8.530;2022-07-30T09:51:53;3.17;;;1.85;;
5801;SDS011;2927;49.366;8.530;2022-07-30T09:54:20;3.58;;;2.67;;
5801;SDS011;2927;49.366;8.530;2022-07-30T09:56:46;5.57;;;2.72;;
5801;SDS011;2927;49.366;8.530;2022-07-30T09:59:24;2.67;;;2.42;;
5801;SDS011;2927;49.366;8.530;2022-07-30T10:01:52;2.78;;;2.45;;
5801;SDS011;2927;49.366;8.530;2022-07-30T10:04:29;2.45;;;2.20;;
5801;SDS011;2927;49.366;8.530;2022-07-30T10:06:56;5.10;;;2.47;;
5801;SDS011;2927;49.366;8.530;2022-07-30T10:09:24;3.78;;;3.42;;
5801;SDS011;2927;49.366;8.530;2022-07-30T10:11:50;5.28;;;2.25;;
5801;SDS011;2927;49.366;8.530;2022-07-30T10:14:17;7.20;;;2.70;;
5801;SDS011;2927;49.366;8.530;2022-07-30T10:16:43;6.07;;;2.70;;
5801;SDS011;2927;49.366;8.530;2022-07-30T10:19:09;3.70;;;2.22;;
5801;SDS011;2927;49.366;8.530;2022-07-30T10:21:36;3.38;;;2.72;;
5801;SDS011;2927;49.366;8.530;2022-07-30T10:24:02;3.10;;;2.28;;
5801;SDS011;2927;49.366;8.530;2022-07-30T10:26:28;3.53;;;2.40;;
5801;SDS011;2927;49.366;8.530;2022-07-30T10:28:58;6.15;;;2.70;;
5801;SDS011;2927;49.366;8.530;2022-07-30T10:31:25;2.73;;;2.50;;
5801;SDS011;2927;49.366;8.530;2022-07-30T10:33:51;3.07;;;2.30;;
5801;SDS011;2927;49.366;8.530;2022-07-30T10:36:17;3.97;;;2.53;;
5801;SDS011;2927;49.366;8.530;2022-07-30T10:38:43;3.80;;;2.43;;
5801;SDS011;2927;49.366;8.530;2022-07-30T10:41:14;2.63;;;2.43;;
5801;SDS011;2927;49.366;8.530;2022-07-30T10:46:25;5.50;;;1.93;;
5801;SDS011;2927;49.366;8.530;2022-07-30T10:49:16;5.13;;;2.57;;
5801;SDS011;2927;49.366;8.530;2022-07-30T10:51:49;2.30;;;2.20;;
5801;SDS011;2927;49.366;8.530;2022-07-30T10:57:06;1.70;;;1.60;;
5801;SDS011;2927;49.366;8.530;2022-07-30T11:02:19;2.57;;;2.07;;
5801;SDS011;2927;49.366;8.530;2022-07-30T11:04:46;3.80;;;1.60;;
5801;SDS011;2927;49.366;8.530;2022-07-30T11:09:49;3.92;;;2.20;;
5801;SDS011;2927;49.366;8.530;2022-07-30T11:12:52;3.92;;;2.00;;
5801;SDS011;2927;49.366;8.530;2022-07-30T11:15:11;4.77;;;2.23;;
5801;SDS011;2927;49.366;8.530;2022-07-30T11:20:29;4.63;;;1.63;;
5801;SDS011;2927;49.366;8.530;2022-07-30T11:25:43;2.38;;;1.83;;
5801;SDS011;2927;49.366;8.530;2022-07-30T11:31:00;3.00;;;2.80;;
5801;SDS011;2927;49.366;8.530;2022-07-30T11:33:26;7.10;;;3.60;;
5801;SDS011;2927;49.366;8.530;2022-07-30T11:36:03;2.97;;;2.50;;
5801;SDS011;2927;49.366;8.530;2022-07-30T11:38:49;3.25;;;1.85;;
5801;SDS011;2927;49.366;8.530;2022-07-30T11:41:14;3.10;;;2.10;;
5801;SDS011;2927;49.366;8.530;2022-07-30T11:43:40;1.73;;;1.63;;
5801;SDS011;2927;49.366;8.530;2022-07-30T11:46:18;2.65;;;1.90;;
5801;SDS011;2927;49.366;8.530;2022-07-30T11:48:58;2.13;;;2.03;;
5801;SDS011;2927;49.366;8.530;2022-07-30T11:51:26;1.73;;;1.63;;
5801;SDS011;2927;49.366;8.530;2022-07-30T11:54:02;1.98;;;1.88;;
5801;SDS011;2927;49.366;8.530;2022-07-30T11:56:29;2.22;;;1.83;;
5801;SDS011;2927;49.366;8.530;2022-07-30T11:59:05;4.28;;;1.75;;
5801;SDS011;2927;49.366;8.530;2022-07-30T12:01:32;1.80;;;1.70;;
5801;SDS011;2927;49.366;8.530;2022-07-30T12:04:05;1.83;;;1.73;;
5801;SDS011;2927;49.366;8.530;2022-07-30T12:06:33;2.38;;;1.33;;
5801;SDS011;2927;49.366;8.530;2022-07-30T12:09:06;2.55;;;1.42;;
5801;SDS011;2927;49.366;8.530;2022-07-30T12:11:33;1.90;;;1.80;;
5801;SDS011;2927;49.366;8.530;2022-07-30T12:14:00;1.52;;;1.52;;
5801;SDS011;2927;49.366;8.530;2022-07-30T12:16:27;3.40;;;1.98;;
5801;SDS011;2927;49.366;8.530;2022-07-30T12:18:54;7.85;;;2.17;;
5801;SDS011;2927;49.366;8.530;2022-07-30T12:21:29;3.95;;;2.13;;
5801;SDS011;2927;49.366;8.530;2022-07-30T12:23:58;1.60;;;1.60;;
5801;SDS011;2927;49.366;8.530;2022-07-30T12:26:26;2.85;;;1.65;;
5801;SDS011;2927;49.366;8.530;2022-07-30T12:28:54;3.00;;;1.35;;
5801;SDS011;2927;49.366;8.530;2022-07-30T12:31:24;1.35;;;1.25;;
5801;SDS011;2927;49.366;8.530;2022-07-30T12:33:50;7.32;;;1.55;;
5801;SDS011;2927;49.366;8.530;2022-07-30T12:36:23;3.25;;;1.70;;
5801;SDS011;2927;49.366;8.530;2022-07-30T12:38:53;2.15;;;1.65;;
5801;SDS011;2927;49.366;8.530;2022-07-30T12:41:20;1.92;;;1.73;;
5801;SDS011;2927;49.366;8.530;2022-07-30T12:43:53;2.25;;;1.70;;
5801;SDS011;2927;49.366;8.530;2022-07-30T12:46:20;1.90;;;1.80;;
5801;SDS011;2927;49.366;8.530;2022-07-30T12:48:54;2.70;;;1.65;;
5801;SDS011;2927;49.366;8.530;2022-07-30T12:51:30;3.80;;;1.63;;
5801;SDS011;2927;49.366;8.530;2022-07-30T12:53:57;3.47;;;1.70;;
5801;SDS011;2927;49.366;8.530;2022-07-30T12:56:29;1.77;;;1.33;;
5801;SDS011;2927;49.366;8.530;2022-07-30T12:58:56;3.03;;;1.67;;
5801;SDS011;2927;49.366;8.530;2022-07-30T13:01:39;3.80;;;1.63;;
5801;SDS011;2927;49.366;8.530;2022-07-30T13:04:06;7.13;;;5.80;;
5801;SDS011;2927;49.366;8.530;2022-07-30T13:06:33;3.10;;;1.77;;
5801;SDS011;2927;49.366;8.530;2022-07-30T13:08:59;1.70;;;1.60;;
5801;SDS011;2927;49.366;8.530;2022-07-30T13:11:26;1.40;;;1.30;;
5801;SDS011;2927;49.366;8.530;2022-07-30T13:14:05;3.53;;;1.60;;
5801;SDS011;2927;49.366;8.530;2022-07-30T13:16:31;3.47;;;1.23;;
5801;SDS011;2927;49.366;8.530;2022-07-30T13:18:58;1.33;;;1.23;;
5801;SDS011;2927;49.366;8.530;2022-07-30T13:21:24;3.25;;;1.73;;
5801;SDS011;2927;49.366;8.530;2022-07-30T13:23:50;1.95;;;1.70;;
5801;SDS011;2927;49.366;8.530;2022-07-30T13:26:15;1.33;;;1.05;;
5801;SDS011;2927;49.366;8.530;2022-07-30T13:28:41;2.67;;;1.77;;
5801;SDS011;2927;49.366;8.530;2022-07-30T13:31:07;1.63;;;1.25;;
5801;SDS011;2927;49.366;8.530;2022-07-30T13:33:33;2.13;;;1.58;;
5801;SDS011;2927;49.366;8.530;2022-07-30T13:36:00;1.40;;;1.17;;
5801;SDS011;2927;49.366;8.530;2022-07-30T13:38:26;2.85;;;1.58;;
5801;SDS011;2927;49.366;8.530;2022-07-30T13:40:52;3.35;;;1.33;;
5801;SDS011;2927;49.366;8.530;2022-07-30T13:43:18;3.50;;;1.88;;
5801;SDS011;2927;49.366;8.530;2022-07-30T13:45:45;2.47;;;1.70;;
5801;SDS011;2927;49.366;8.530;2022-07-30T13:48:11;3.95;;;1.70;;
5801;SDS011;2927;49.366;8.530;2022-07-30T13:50:37;1.75;;;1.17;;
5801;SDS011;2927;49.366;8.530;2022-07-30T13:53:03;1.30;;;1.15;;
5801;SDS011;2927;49.366;8.530;2022-07-30T13:55:29;2.22;;;1.20;;
5801;SDS011;2927;49.366;8.530;2022-07-30T13:57:55;2.78;;;1.42;;
5801;SDS011;2927;49.366;8.530;2022-07-30T14:00:20;6.13;;;1.20;;
5801;SDS011;2927;49.366;8.530;2022-07-30T14:02:46;2.50;;;1.75;;
5801;SDS011;2927;49.366;8.530;2022-07-30T14:05:14;1.33;;;1.33;;
5801;SDS011;2927;49.366;8.530;2022-07-30T14:07:40;2.85;;;1.70;;
5801;SDS011;2927;49.366;8.530;2022-07-30T14:10:06;2.08;;;1.48;;
5801;SDS011;2927;49.366;8.530;2022-07-30T14:12:32;6.07;;;2.50;;
5801;SDS011;2927;49.366;8.530;2022-07-30T14:14:58;3.13;;;1.63;;
5801;SDS011;2927;49.366;8.530;2022-07-30T14:17:24;6.63;;;1.23;;
5801;SDS011;2927;49.366;8.530;2022-07-30T14:19:50;1.57;;;1.20;;
5801;SDS011;2927;49.366;8.530;2022-07-30T14:22:18;4.20;;;1.40;;
5801;SDS011;2927;49.366;8.530;2022-07-30T14:24:44;2.40;;;1.40;;
5801;SDS011;2927;49.366;8.530;2022-07-30T14:27:10;1.70;;;1.27;;
5801;SDS011;2927;49.366;8.530;2022-07-30T14:29:35;2.50;;;1.40;;
5801;SDS011;2927;49.366;8.530;2022-07-30T14:32:01;2.33;;;1.37;;
5801;SDS011;2927;49.366;8.530;2022-07-30T14:34:26;1.23;;;1.00;;
5801;SDS011;2927;49.366;8.530;2022-07-30T14:36:52;2.53;;;1.67;;
5801;SDS011;2927;49.366;8.530;2022-07-30T14:39:17;1.40;;;1.27;;
5801;SDS011;2927;49.366;8.530;2022-07-30T14:41:44;2.17;;;1.40;;
5801;SDS011;2927;49.366;8.530;2022-07-30T14:44:10;2.50;;;1.38;;
5801;SDS011;2927;49.366;8.530;2022-07-30T14:46:40;6.05;;;1.00;;
5801;SDS011;2927;49.366;8.530;2022-07-30T14:49:07;2.05;;;1.10;;
5801;SDS011;2927;49.366;8.530;2022-07-30T14:51:33;2.97;;;1.20;;
5801;SDS011;2927;49.366;8.530;2022-07-30T14:54:00;1.45;;;1.00;;
5801;SDS011;2927;49.366;8.530;2022-07-30T14:56:25;1.08;;;1.08;;
5801;SDS011;2927;49.366;8.530;2022-07-30T14:58:51;1.52;;;0.93;;
5801;SDS011;2927;49.366;8.530;2022-07-30T15:01:18;1.73;;;1.60;;
5801;SDS011;2927;49.366;8.530;2022-07-30T15:03:44;2.17;;;1.50;;
5801;SDS011;2927;49.366;8.530;2022-07-30T15:06:10;0.90;;;0.90;;
5801;SDS011;2927;49.366;8.530;2022-07-30T15:08:36;1.40;;;1.10;;
5801;SDS011;2927;49.366;8.530;2022-07-30T15:11:02;0.85;;;0.85;;
5801;SDS011;2927;49.366;8.530;2022-07-30T15:13:28;1.42;;;1.25;;
5801;SDS011;2927;49.366;8.530;2022-07-30T15:15:53;4.00;;;1.27;;
5801;SDS011;2927;49.366;8.530;2022-07-30T15:18:19;1.05;;;0.90;;
5801;SDS011;2927;49.366;8.530;2022-07-30T15:20:44;1.50;;;1.40;;
5801;SDS011;2927;49.366;8.530;2022-07-30T15:23:10;0.80;;;0.80;;
5801;SDS011;2927;49.366;8.530;2022-07-30T15:25:35;0.85;;;0.85;;
5801;SDS011;2927;49.366;8.530;2022-07-30T15:28:01;5.25;;;1.30;;
5801;SDS011;2927;49.366;8.530;2022-07-30T15:30:27;1.23;;;1.10;;
5801;SDS011;2927;49.366;8.530;2022-07-30T15:32:53;5.57;;;1.27;;
5801;SDS011;2927;49.366;8.530;2022-07-30T15:35:19;1.23;;;0.63;;
5801;SDS011;2927;49.366;8.530;2022-07-30T15:37:45;2.58;;;0.60;;
5801;SDS011;2927;49.366;8.530;2022-07-30T15:40:11;1.17;;;0.60;;
5801;SDS011;2927;49.366;8.530;2022-07-30T15:42:36;1.30;;;0.95;;
5801;SDS011;2927;49.366;8.530;2022-07-30T15:45:02;4.60;;;1.25;;